sensor_id;sensor_type;location;lat;lon;timestamp;P1;durP1;ratioP1;P2;durP2;ratioP2
84877;SDS011;75140;47.754;8.840;2024-03-08T00:01:40;35.73;;;18.20;;
84877;SDS011;75140;47.754;8.840;2024-03-08T00:04:05;31.65;;;16.30;;
84877;SDS011;75140;47.754;8.840;2024-03-08T00:06:31;34.78;;;16.45;;
84877;SDS011;75140;47.754;8.840;2024-03-08T00:08:57;36.42;;;17.65;;
84877;SDS011;75140;47.754;8.840;2024-03-08T00:11:22;30.47;;;15.50;;
84877;SDS011;75140;47.754;8.840;2024-03-08T00:13:51;33.05;;;17.70;;
84877;SDS011;75140;47.754;8.840;2024-03-08T00:16:17;35.08;;;17.55;;
84877;SDS011;75140;47.754;8.840;2024-03-08T00:18:44;34.17;;;17.20;;
84877;SDS011;75140;47.754;8.840;2024-03-08T00:21:10;34.50;;;17.85;;
84877;SDS011;75140;47.754;8.840;2024-03-08T00:23:37;34.22;;;16.52;;
84877;SDS011;75140;47.754;8.840;2024-03-08T00:26:02;33.55;;;14.75;;
84877;SDS011;75140;47.754;8.840;2024-03-08T00:28:29;32.63;;;15.82;;
84877;SDS011;75140;47.754;8.840;2024-03-08T00:30:55;30.15;;;15.52;;
84877;SDS011;75140;47.754;8.840;2024-03-08T00:33:21;29.23;;;16.10;;
84877;SDS011;75140;47.754;8.840;2024-03-08T00:35:46;28.83;;;14.37;;
84877;SDS011;75140;47.754;8.840;2024-03-08T00:38:12;33.00;;;15.07;;
84877;SDS011;75140;47.754;8.840;2024-03-08T00:40:38;29.88;;;14.05;;
84877;SDS011;75140;47.754;8.840;2024-03-08T00:43:04;28.50;;;14.38;;
84877;SDS011;75140;47.754;8.840;2024-03-08T00:45:30;27.15;;;15.20;;
84877;SDS011;75140;47.754;8.840;2024-03-08T00:47:55;30.85;;;15.05;;
84877;SDS011;75140;47.754;8.840;2024-03-08T00:50:21;28.83;;;14.37;;
84877;SDS011;75140;47.754;8.840;2024-03-08T00:52:46;28.10;;;13.67;;
84877;SDS011;75140;47.754;8.840;2024-03-08T00:55:11;26.87;;;14.57;;
84877;SDS011;75140;47.754;8.840;2024-03-08T00:57:37;25.00;;;13.48;;
84877;SDS011;75140;47.754;8.840;2024-03-08T01:00:04;31.67;;;15.00;;
84877;SDS011;75140;47.754;8.840;2024-03-08T01:05:00;29.88;;;13.88;;
84877;SDS011;75140;47.754;8.840;2024-03-08T01:07:26;29.00;;;12.88;;
84877;SDS011;75140;47.754;8.840;2024-03-08T01:09:51;28.07;;;15.13;;
84877;SDS011;75140;47.754;8.840;2024-03-08T01:12:16;25.90;;;14.20;;
84877;SDS011;75140;47.754;8.840;2024-03-08T01:14:42;31.50;;;13.95;;
84877;SDS011;75140;47.754;8.840;2024-03-08T01:17:07;29.87;;;15.07;;
84877;SDS011;75140;47.754;8.840;2024-03-08T01:19:34;23.80;;;12.35;;
84877;SDS011;75140;47.754;8.840;2024-03-08T01:22:00;25.70;;;13.93;;
84877;SDS011;75140;47.754;8.840;2024-03-08T01:24:25;26.60;;;14.32;;
84877;SDS011;75140;47.754;8.840;2024-03-08T01:26:50;27.60;;;13.10;;
84877;SDS011;75140;47.754;8.840;2024-03-08T01:29:16;26.70;;;12.30;;
84877;SDS011;75140;47.754;8.840;2024-03-08T01:31:41;20.65;;;12.25;;
84877;SDS011;75140;47.754;8.840;2024-03-08T01:34:06;27.70;;;14.87;;
84877;SDS011;75140;47.754;8.840;2024-03-08T01:36:32;31.20;;;13.37;;
84877;SDS011;75140;47.754;8.840;2024-03-08T01:38:57;27.00;;;14.52;;
84877;SDS011;75140;47.754;8.840;2024-03-08T01:41:22;27.57;;;13.57;;
84877;SDS011;75140;47.754;8.840;2024-03-08T01:43:48;22.98;;;11.75;;
84877;SDS011;75140;47.754;8.840;2024-03-08T01:46:15;29.33;;;13.15;;
84877;SDS011;75140;47.754;8.840;2024-03-08T01:48:44;24.70;;;12.23;;
84877;SDS011;75140;47.754;8.840;2024-03-08T01:51:10;24.75;;;12.00;;
84877;SDS011;75140;47.754;8.840;2024-03-08T01:53:37;25.48;;;12.25;;
84877;SDS011;75140;47.754;8.840;2024-03-08T01:56:03;26.98;;;12.95;;
84877;SDS011;75140;47.754;8.840;2024-03-08T01:58:29;22.33;;;11.48;;
84877;SDS011;75140;47.754;8.840;2024-03-08T02:00:56;21.90;;;12.20;;
84877;SDS011;75140;47.754;8.840;2024-03-08T02:03:22;25.35;;;13.32;;
84877;SDS011;75140;47.754;8.840;2024-03-08T02:05:48;26.83;;;12.80;;
84877;SDS011;75140;47.754;8.840;2024-03-08T02:08:13;23.75;;;12.13;;
84877;SDS011;75140;47.754;8.840;2024-03-08T02:10:43;23.02;;;11.85;;
84877;SDS011;75140;47.754;8.840;2024-03-08T02:13:09;23.88;;;13.02;;
84877;SDS011;75140;47.754;8.840;2024-03-08T02:15:51;22.95;;;13.32;;
84877;SDS011;75140;47.754;8.840;2024-03-08T02:18:20;26.73;;;12.85;;
84877;SDS011;75140;47.754;8.840;2024-03-08T02:20:47;26.85;;;12.93;;
84877;SDS011;75140;47.754;8.840;2024-03-08T02:23:19;26.65;;;13.10;;
84877;SDS011;75140;47.754;8.840;2024-03-08T02:25:45;27.35;;;14.00;;
84877;SDS011;75140;47.754;8.840;2024-03-08T02:28:11;25.38;;;14.52;;
84877;SDS011;75140;47.754;8.840;2024-03-08T02:30:37;25.63;;;13.88;;
84877;SDS011;75140;47.754;8.840;2024-03-08T02:33:04;25.20;;;11.93;;
84877;SDS011;75140;47.754;8.840;2024-03-08T02:35:30;35.00;;;14.85;;
84877;SDS011;75140;47.754;8.840;2024-03-08T02:37:55;22.77;;;12.93;;
84877;SDS011;75140;47.754;8.840;2024-03-08T02:40:21;24.27;;;12.73;;
84877;SDS011;75140;47.754;8.840;2024-03-08T02:42:47;28.98;;;13.30;;
84877;SDS011;75140;47.754;8.840;2024-03-08T02:45:12;24.92;;;13.90;;
84877;SDS011;75140;47.754;8.840;2024-03-08T02:47:38;26.67;;;13.00;;
84877;SDS011;75140;47.754;8.840;2024-03-08T02:50:04;26.17;;;13.80;;
84877;SDS011;75140;47.754;8.840;2024-03-08T02:52:32;24.17;;;12.52;;
84877;SDS011;75140;47.754;8.840;2024-03-08T02:55:01;25.65;;;13.73;;
84877;SDS011;75140;47.754;8.840;2024-03-08T02:57:27;24.80;;;12.63;;
84877;SDS011;75140;47.754;8.840;2024-03-08T02:59:53;29.30;;;14.27;;
84877;SDS011;75140;47.754;8.840;2024-03-08T03:02:18;28.58;;;12.88;;
84877;SDS011;75140;47.754;8.840;2024-03-08T03:04:44;28.67;;;14.15;;
84877;SDS011;75140;47.754;8.840;2024-03-08T03:07:09;25.03;;;14.50;;
84877;SDS011;75140;47.754;8.840;2024-03-08T03:09:36;25.48;;;13.10;;
84877;SDS011;75140;47.754;8.840;2024-03-08T03:12:01;27.67;;;15.23;;
84877;SDS011;75140;47.754;8.840;2024-03-08T03:14:27;30.75;;;15.32;;
84877;SDS011;75140;47.754;8.840;2024-03-08T03:16:52;34.90;;;14.98;;
84877;SDS011;75140;47.754;8.840;2024-03-08T03:19:19;28.33;;;14.02;;
84877;SDS011;75140;47.754;8.840;2024-03-08T03:21:45;36.35;;;16.05;;
84877;SDS011;75140;47.754;8.840;2024-03-08T03:24:10;32.83;;;16.23;;
84877;SDS011;75140;47.754;8.840;2024-03-08T03:26:37;28.70;;;14.55;;
84877;SDS011;75140;47.754;8.840;2024-03-08T03:29:06;28.60;;;14.93;;
84877;SDS011;75140;47.754;8.840;2024-03-08T03:31:35;23.75;;;12.27;;
84877;SDS011;75140;47.754;8.840;2024-03-08T03:34:01;26.05;;;14.20;;
84877;SDS011;75140;47.754;8.840;2024-03-08T03:36:28;27.58;;;13.48;;
84877;SDS011;75140;47.754;8.840;2024-03-08T03:38:58;26.80;;;13.57;;
84877;SDS011;75140;47.754;8.840;2024-03-08T03:41:34;29.33;;;14.00;;
84877;SDS011;75140;47.754;8.840;2024-03-08T03:44:00;31.25;;;16.17;;
84877;SDS011;75140;47.754;8.840;2024-03-08T03:46:25;28.13;;;13.93;;
84877;SDS011;75140;47.754;8.840;2024-03-08T03:48:52;37.88;;;15.68;;
84877;SDS011;75140;47.754;8.840;2024-03-08T03:51:17;30.10;;;14.77;;
84877;SDS011;75140;47.754;8.840;2024-03-08T03:53:44;28.52;;;14.38;;
84877;SDS011;75140;47.754;8.840;2024-03-08T03:56:09;27.53;;;14.63;;
84877;SDS011;75140;47.754;8.840;2024-03-08T03:58:35;27.90;;;15.02;;
84877;SDS011;75140;47.754;8.840;2024-03-08T04:01:01;25.30;;;14.77;;
84877;SDS011;75140;47.754;8.840;2024-03-08T04:03:26;29.30;;;14.73;;
84877;SDS011;75140;47.754;8.840;2024-03-08T04:05:52;26.53;;;13.70;;
84877;SDS011;75140;47.754;8.840;2024-03-08T04:08:17;30.90;;;15.13;;
84877;SDS011;75140;47.754;8.840;2024-03-08T04:10:42;27.87;;;13.47;;
84877;SDS011;75140;47.754;8.840;2024-03-08T04:13:08;32.40;;;15.30;;
84877;SDS011;75140;47.754;8.840;2024-03-08T04:15:34;29.05;;;14.10;;
84877;SDS011;75140;47.754;8.840;2024-03-08T04:18:00;30.65;;;14.50;;
84877;SDS011;75140;47.754;8.840;2024-03-08T04:20:25;31.30;;;13.25;;
84877;SDS011;75140;47.754;8.840;2024-03-08T04:22:51;29.45;;;14.43;;
84877;SDS011;75140;47.754;8.840;2024-03-08T04:25:16;29.37;;;14.37;;
84877;SDS011;75140;47.754;8.840;2024-03-08T04:27:42;32.58;;;14.48;;
84877;SDS011;75140;47.754;8.840;2024-03-08T04:30:07;29.30;;;14.87;;
84877;SDS011;75140;47.754;8.840;2024-03-08T04:32:33;26.63;;;14.50;;
84877;SDS011;75140;47.754;8.840;2024-03-08T04:34:59;30.00;;;14.00;;
84877;SDS011;75140;47.754;8.840;2024-03-08T04:37:26;26.65;;;14.10;;
84877;SDS011;75140;47.754;8.840;2024-03-08T04:39:51;31.85;;;14.38;;
84877;SDS011;75140;47.754;8.840;2024-03-08T04:42:17;34.50;;;15.70;;
84877;SDS011;75140;47.754;8.840;2024-03-08T04:44:43;28.33;;;15.35;;
84877;SDS011;75140;47.754;8.840;2024-03-08T04:47:08;30.67;;;15.55;;
84877;SDS011;75140;47.754;8.840;2024-03-08T04:49:35;31.90;;;15.65;;
84877;SDS011;75140;47.754;8.840;2024-03-08T04:52:01;31.75;;;14.95;;
84877;SDS011;75140;47.754;8.840;2024-03-08T04:54:28;33.42;;;16.50;;
84877;SDS011;75140;47.754;8.840;2024-03-08T04:56:53;31.23;;;16.95;;
84877;SDS011;75140;47.754;8.840;2024-03-08T04:59:18;30.50;;;14.93;;
84877;SDS011;75140;47.754;8.840;2024-03-08T05:01:44;35.40;;;16.45;;
84877;SDS011;75140;47.754;8.840;2024-03-08T05:04:09;34.55;;;15.77;;
84877;SDS011;75140;47.754;8.840;2024-03-08T05:06:35;31.43;;;15.10;;
84877;SDS011;75140;47.754;8.840;2024-03-08T05:09:01;31.83;;;14.73;;
84877;SDS011;75140;47.754;8.840;2024-03-08T05:11:31;36.60;;;16.23;;
84877;SDS011;75140;47.754;8.840;2024-03-08T05:13:56;35.80;;;16.80;;
84877;SDS011;75140;47.754;8.840;2024-03-08T05:16:23;34.83;;;16.13;;
84877;SDS011;75140;47.754;8.840;2024-03-08T05:18:49;34.78;;;15.57;;
84877;SDS011;75140;47.754;8.840;2024-03-08T05:21:16;34.30;;;16.05;;
84877;SDS011;75140;47.754;8.840;2024-03-08T05:23:45;29.88;;;15.25;;
84877;SDS011;75140;47.754;8.840;2024-03-08T05:26:10;33.90;;;17.17;;
84877;SDS011;75140;47.754;8.840;2024-03-08T05:28:36;32.23;;;16.03;;
84877;SDS011;75140;47.754;8.840;2024-03-08T05:31:01;32.53;;;17.17;;
84877;SDS011;75140;47.754;8.840;2024-03-08T05:33:26;32.10;;;16.27;;
84877;SDS011;75140;47.754;8.840;2024-03-08T05:35:51;33.60;;;16.07;;
84877;SDS011;75140;47.754;8.840;2024-03-08T05:38:17;29.40;;;15.73;;
84877;SDS011;75140;47.754;8.840;2024-03-08T05:40:42;31.17;;;15.23;;
84877;SDS011;75140;47.754;8.840;2024-03-08T05:43:08;32.22;;;15.32;;
84877;SDS011;75140;47.754;8.840;2024-03-08T05:45:33;28.70;;;15.48;;
84877;SDS011;75140;47.754;8.840;2024-03-08T05:47:59;33.13;;;15.13;;
84877;SDS011;75140;47.754;8.840;2024-03-08T05:50:24;35.33;;;18.85;;
84877;SDS011;75140;47.754;8.840;2024-03-08T05:52:50;35.63;;;15.80;;
84877;SDS011;75140;47.754;8.840;2024-03-08T05:55:15;33.07;;;15.20;;
84877;SDS011;75140;47.754;8.840;2024-03-08T05:57:43;33.75;;;15.73;;
84877;SDS011;75140;47.754;8.840;2024-03-08T06:00:09;30.80;;;15.02;;
84877;SDS011;75140;47.754;8.840;2024-03-08T06:02:40;38.53;;;18.05;;
84877;SDS011;75140;47.754;8.840;2024-03-08T06:05:09;35.83;;;17.90;;
84877;SDS011;75140;47.754;8.840;2024-03-08T06:07:36;32.90;;;13.32;;
84877;SDS011;75140;47.754;8.840;2024-03-08T06:10:05;28.40;;;13.43;;
84877;SDS011;75140;47.754;8.840;2024-03-08T06:12:31;36.25;;;16.63;;
84877;SDS011;75140;47.754;8.840;2024-03-08T06:15:02;28.50;;;14.90;;
84877;SDS011;75140;47.754;8.840;2024-03-08T06:17:29;34.58;;;16.38;;
84877;SDS011;75140;47.754;8.840;2024-03-08T06:19:54;34.20;;;15.87;;
84877;SDS011;75140;47.754;8.840;2024-03-08T06:22:20;34.97;;;15.83;;
84877;SDS011;75140;47.754;8.840;2024-03-08T06:24:45;29.65;;;15.30;;
84877;SDS011;75140;47.754;8.840;2024-03-08T06:27:12;33.95;;;15.27;;
84877;SDS011;75140;47.754;8.840;2024-03-08T06:29:37;30.40;;;15.40;;
84877;SDS011;75140;47.754;8.840;2024-03-08T06:32:02;32.80;;;16.42;;
84877;SDS011;75140;47.754;8.840;2024-03-08T06:34:28;29.15;;;16.00;;
84877;SDS011;75140;47.754;8.840;2024-03-08T06:36:53;35.10;;;15.87;;
84877;SDS011;75140;47.754;8.840;2024-03-08T06:39:25;30.85;;;16.65;;
84877;SDS011;75140;47.754;8.840;2024-03-08T06:41:51;41.15;;;18.08;;
84877;SDS011;75140;47.754;8.840;2024-03-08T06:44:16;40.37;;;17.83;;
84877;SDS011;75140;47.754;8.840;2024-03-08T06:46:41;33.27;;;15.73;;
84877;SDS011;75140;47.754;8.840;2024-03-08T06:49:07;32.85;;;15.52;;
84877;SDS011;75140;47.754;8.840;2024-03-08T06:51:34;32.78;;;15.70;;
84877;SDS011;75140;47.754;8.840;2024-03-08T06:53:59;33.38;;;16.30;;
84877;SDS011;75140;47.754;8.840;2024-03-08T06:56:25;34.08;;;15.13;;
84877;SDS011;75140;47.754;8.840;2024-03-08T06:58:50;36.47;;;16.60;;
84877;SDS011;75140;47.754;8.840;2024-03-08T07:01:16;31.10;;;16.13;;
84877;SDS011;75140;47.754;8.840;2024-03-08T07:03:42;33.75;;;16.35;;
84877;SDS011;75140;47.754;8.840;2024-03-08T07:06:09;33.40;;;16.25;;
84877;SDS011;75140;47.754;8.840;2024-03-08T07:08:35;36.00;;;15.93;;
84877;SDS011;75140;47.754;8.840;2024-03-08T07:11:01;37.88;;;15.27;;
84877;SDS011;75140;47.754;8.840;2024-03-08T07:13:26;29.53;;;14.23;;
84877;SDS011;75140;47.754;8.840;2024-03-08T07:15:55;33.50;;;16.35;;
84877;SDS011;75140;47.754;8.840;2024-03-08T07:18:20;37.20;;;16.02;;
84877;SDS011;75140;47.754;8.840;2024-03-08T07:20:47;36.20;;;17.02;;
84877;SDS011;75140;47.754;8.840;2024-03-08T07:23:12;35.90;;;16.05;;
84877;SDS011;75140;47.754;8.840;2024-03-08T07:25:57;31.52;;;15.48;;
84877;SDS011;75140;47.754;8.840;2024-03-08T07:28:23;39.10;;;17.05;;
84877;SDS011;75140;47.754;8.840;2024-03-08T07:30:48;34.70;;;14.53;;
84877;SDS011;75140;47.754;8.840;2024-03-08T07:33:14;39.10;;;18.05;;
84877;SDS011;75140;47.754;8.840;2024-03-08T07:35:39;35.90;;;17.90;;
84877;SDS011;75140;47.754;8.840;2024-03-08T07:38:05;32.90;;;17.17;;
84877;SDS011;75140;47.754;8.840;2024-03-08T07:40:37;36.25;;;17.25;;
84877;SDS011;75140;47.754;8.840;2024-03-08T07:43:08;34.63;;;16.85;;
84877;SDS011;75140;47.754;8.840;2024-03-08T07:45:33;39.47;;;18.77;;
84877;SDS011;75140;47.754;8.840;2024-03-08T07:47:59;39.28;;;16.30;;
84877;SDS011;75140;47.754;8.840;2024-03-08T07:50:24;35.63;;;15.87;;
84877;SDS011;75140;47.754;8.840;2024-03-08T07:52:50;32.63;;;15.17;;
84877;SDS011;75140;47.754;8.840;2024-03-08T07:55:16;39.20;;;17.52;;
84877;SDS011;75140;47.754;8.840;2024-03-08T07:57:41;34.05;;;16.00;;
84877;SDS011;75140;47.754;8.840;2024-03-08T08:00:07;31.20;;;14.32;;
84877;SDS011;75140;47.754;8.840;2024-03-08T08:02:34;31.85;;;14.77;;
84877;SDS011;75140;47.754;8.840;2024-03-08T08:05:00;38.40;;;17.10;;
84877;SDS011;75140;47.754;8.840;2024-03-08T08:07:26;30.15;;;15.02;;
84877;SDS011;75140;47.754;8.840;2024-03-08T08:09:52;30.58;;;16.30;;
84877;SDS011;75140;47.754;8.840;2024-03-08T08:12:18;27.58;;;15.40;;
84877;SDS011;75140;47.754;8.840;2024-03-08T08:14:43;32.47;;;14.88;;
84877;SDS011;75140;47.754;8.840;2024-03-08T08:17:09;27.93;;;15.20;;
84877;SDS011;75140;47.754;8.840;2024-03-08T08:19:34;28.48;;;14.35;;
84877;SDS011;75140;47.754;8.840;2024-03-08T08:22:03;34.60;;;15.38;;
84877;SDS011;75140;47.754;8.840;2024-03-08T08:24:29;28.02;;;15.55;;
84877;SDS011;75140;47.754;8.840;2024-03-08T08:26:55;32.63;;;15.93;;
84877;SDS011;75140;47.754;8.840;2024-03-08T08:29:20;30.77;;;14.50;;
84877;SDS011;75140;47.754;8.840;2024-03-08T08:31:47;28.02;;;13.25;;
84877;SDS011;75140;47.754;8.840;2024-03-08T08:34:12;25.15;;;12.93;;
84877;SDS011;75140;47.754;8.840;2024-03-08T08:36:38;25.30;;;13.10;;
84877;SDS011;75140;47.754;8.840;2024-03-08T08:39:04;29.50;;;14.18;;
84877;SDS011;75140;47.754;8.840;2024-03-08T08:41:36;28.38;;;12.63;;
84877;SDS011;75140;47.754;8.840;2024-03-08T08:44:01;37.63;;;15.20;;
84877;SDS011;75140;47.754;8.840;2024-03-08T08:46:27;25.93;;;12.70;;
84877;SDS011;75140;47.754;8.840;2024-03-08T08:48:52;26.67;;;12.63;;
84877;SDS011;75140;47.754;8.840;2024-03-08T08:51:17;29.23;;;14.13;;
84877;SDS011;75140;47.754;8.840;2024-03-08T08:53:43;27.83;;;13.07;;
84877;SDS011;75140;47.754;8.840;2024-03-08T08:56:10;25.45;;;12.85;;
84877;SDS011;75140;47.754;8.840;2024-03-08T08:58:38;29.45;;;15.00;;
84877;SDS011;75140;47.754;8.840;2024-03-08T09:01:04;27.85;;;14.40;;
84877;SDS011;75140;47.754;8.840;2024-03-08T09:03:30;31.17;;;15.48;;
84877;SDS011;75140;47.754;8.840;2024-03-08T09:05:55;25.17;;;11.98;;
84877;SDS011;75140;47.754;8.840;2024-03-08T09:08:21;24.65;;;12.40;;
84877;SDS011;75140;47.754;8.840;2024-03-08T09:10:46;25.38;;;11.85;;
84877;SDS011;75140;47.754;8.840;2024-03-08T09:13:13;27.50;;;12.68;;
84877;SDS011;75140;47.754;8.840;2024-03-08T09:15:39;26.75;;;13.18;;
84877;SDS011;75140;47.754;8.840;2024-03-08T09:18:05;26.63;;;12.82;;
84877;SDS011;75140;47.754;8.840;2024-03-08T09:20:31;23.27;;;11.95;;
84877;SDS011;75140;47.754;8.840;2024-03-08T09:22:57;24.63;;;11.80;;
84877;SDS011;75140;47.754;8.840;2024-03-08T09:25:22;27.00;;;11.40;;
84877;SDS011;75140;47.754;8.840;2024-03-08T09:27:48;23.50;;;11.95;;
84877;SDS011;75140;47.754;8.840;2024-03-08T09:30:13;31.80;;;12.67;;
84877;SDS011;75140;47.754;8.840;2024-03-08T09:32:40;25.10;;;12.48;;
84877;SDS011;75140;47.754;8.840;2024-03-08T09:35:06;27.35;;;12.68;;
84877;SDS011;75140;47.754;8.840;2024-03-08T09:37:32;24.67;;;11.32;;
84877;SDS011;75140;47.754;8.840;2024-03-08T09:39:59;20.60;;;10.75;;
84877;SDS011;75140;47.754;8.840;2024-03-08T09:42:24;23.58;;;11.30;;
84877;SDS011;75140;47.754;8.840;2024-03-08T09:44:50;25.33;;;11.15;;
84877;SDS011;75140;47.754;8.840;2024-03-08T09:47:15;25.15;;;11.07;;
84877;SDS011;75140;47.754;8.840;2024-03-08T09:49:43;25.60;;;11.57;;
84877;SDS011;75140;47.754;8.840;2024-03-08T09:52:08;26.20;;;12.20;;
84877;SDS011;75140;47.754;8.840;2024-03-08T09:54:35;27.90;;;11.68;;
84877;SDS011;75140;47.754;8.840;2024-03-08T09:57:01;23.80;;;12.50;;
84877;SDS011;75140;47.754;8.840;2024-03-08T09:59:29;27.15;;;11.95;;
84877;SDS011;75140;47.754;8.840;2024-03-08T10:02:00;29.15;;;14.10;;
84877;SDS011;75140;47.754;8.840;2024-03-08T10:04:28;31.15;;;13.15;;
84877;SDS011;75140;47.754;8.840;2024-03-08T10:06:55;24.48;;;11.73;;
84877;SDS011;75140;47.754;8.840;2024-03-08T10:09:24;23.35;;;11.70;;
84877;SDS011;75140;47.754;8.840;2024-03-08T10:11:53;22.42;;;11.13;;
84877;SDS011;75140;47.754;8.840;2024-03-08T10:14:21;21.95;;;11.00;;
84877;SDS011;75140;47.754;8.840;2024-03-08T10:16:46;26.95;;;12.90;;
84877;SDS011;75140;47.754;8.840;2024-03-08T10:19:12;21.88;;;11.73;;
84877;SDS011;75140;47.754;8.840;2024-03-08T10:21:47;27.05;;;12.13;;
84877;SDS011;75140;47.754;8.840;2024-03-08T10:24:18;27.67;;;11.40;;
84877;SDS011;75140;47.754;8.840;2024-03-08T10:26:44;24.83;;;12.60;;
84877;SDS011;75140;47.754;8.840;2024-03-08T10:29:09;23.90;;;12.80;;
84877;SDS011;75140;47.754;8.840;2024-03-08T10:31:34;21.30;;;11.55;;
84877;SDS011;75140;47.754;8.840;2024-03-08T10:34:01;25.27;;;10.50;;
84877;SDS011;75140;47.754;8.840;2024-03-08T10:36:27;24.55;;;12.32;;
84877;SDS011;75140;47.754;8.840;2024-03-08T10:38:53;22.83;;;11.07;;
84877;SDS011;75140;47.754;8.840;2024-03-08T10:41:24;25.15;;;11.63;;
84877;SDS011;75140;47.754;8.840;2024-03-08T10:49:31;27.35;;;11.30;;
84877;SDS011;75140;47.754;8.840;2024-03-08T10:52:04;23.10;;;11.02;;
84877;SDS011;75140;47.754;8.840;2024-03-08T10:54:33;20.13;;;10.77;;
84877;SDS011;75140;47.754;8.840;2024-03-08T10:56:59;18.25;;;9.07;;
84877;SDS011;75140;47.754;8.840;2024-03-08T10:59:28;22.35;;;11.20;;
84877;SDS011;75140;47.754;8.840;2024-03-08T11:01:54;21.02;;;10.43;;
84877;SDS011;75140;47.754;8.840;2024-03-08T11:04:20;18.08;;;10.13;;
84877;SDS011;75140;47.754;8.840;2024-03-08T11:06:47;20.17;;;9.70;;
84877;SDS011;75140;47.754;8.840;2024-03-08T11:14:59;21.40;;;10.73;;
84877;SDS011;75140;47.754;8.840;2024-03-08T11:19:57;19.38;;;9.45;;
84877;SDS011;75140;47.754;8.840;2024-03-08T11:22:29;18.35;;;8.65;;
84877;SDS011;75140;47.754;8.840;2024-03-08T11:25:04;21.40;;;9.25;;
84877;SDS011;75140;47.754;8.840;2024-03-08T11:27:38;20.23;;;10.85;;
84877;SDS011;75140;47.754;8.840;2024-03-08T11:30:06;17.42;;;9.38;;
84877;SDS011;75140;47.754;8.840;2024-03-08T11:32:50;15.63;;;8.05;;
84877;SDS011;75140;47.754;8.840;2024-03-08T11:35:19;20.58;;;9.88;;
84877;SDS011;75140;47.754;8.840;2024-03-08T11:37:46;19.73;;;9.05;;
84877;SDS011;75140;47.754;8.840;2024-03-08T11:40:13;20.95;;;9.77;;
84877;SDS011;75140;47.754;8.840;2024-03-08T11:42:45;17.60;;;9.07;;
84877;SDS011;75140;47.754;8.840;2024-03-08T11:45:14;16.67;;;8.73;;
84877;SDS011;75140;47.754;8.840;2024-03-08T11:47:43;18.58;;;10.35;;
84877;SDS011;75140;47.754;8.840;2024-03-08T11:50:11;20.10;;;10.05;;
84877;SDS011;75140;47.754;8.840;2024-03-08T11:52:37;16.77;;;9.23;;
84877;SDS011;75140;47.754;8.840;2024-03-08T11:55:03;19.83;;;10.38;;
84877;SDS011;75140;47.754;8.840;2024-03-08T11:57:31;19.27;;;10.02;;
84877;SDS011;75140;47.754;8.840;2024-03-08T11:59:57;24.02;;;11.25;;
84877;SDS011;75140;47.754;8.840;2024-03-08T12:02:32;21.60;;;10.93;;
84877;SDS011;75140;47.754;8.840;2024-03-08T12:05:00;16.20;;;9.18;;
84877;SDS011;75140;47.754;8.840;2024-03-08T12:07:28;19.50;;;10.35;;
84877;SDS011;75140;47.754;8.840;2024-03-08T12:12:44;19.90;;;10.38;;
84877;SDS011;75140;47.754;8.840;2024-03-08T12:15:11;18.73;;;9.40;;
84877;SDS011;75140;47.754;8.840;2024-03-08T12:17:37;21.58;;;9.82;;
84877;SDS011;75140;47.754;8.840;2024-03-08T12:20:20;18.55;;;10.25;;
84877;SDS011;75140;47.754;8.840;2024-03-08T12:25:13;19.92;;;10.70;;
84877;SDS011;75140;47.754;8.840;2024-03-08T12:27:39;20.25;;;10.82;;
84877;SDS011;75140;47.754;8.840;2024-03-08T12:33:02;17.15;;;10.10;;
84877;SDS011;75140;47.754;8.840;2024-03-08T12:35:28;14.85;;;9.00;;
84877;SDS011;75140;47.754;8.840;2024-03-08T12:37:56;20.00;;;11.57;;
84877;SDS011;75140;47.754;8.840;2024-03-08T12:40:32;21.52;;;10.82;;
84877;SDS011;75140;47.754;8.840;2024-03-08T12:42:59;20.02;;;9.95;;
84877;SDS011;75140;47.754;8.840;2024-03-08T12:45:25;21.95;;;10.40;;
84877;SDS011;75140;47.754;8.840;2024-03-08T12:47:52;18.45;;;9.35;;
84877;SDS011;75140;47.754;8.840;2024-03-08T12:50:18;19.77;;;9.93;;
84877;SDS011;75140;47.754;8.840;2024-03-08T12:52:44;18.15;;;9.40;;
84877;SDS011;75140;47.754;8.840;2024-03-08T12:55:09;14.30;;;9.75;;
84877;SDS011;75140;47.754;8.840;2024-03-08T12:57:35;19.15;;;10.98;;
84877;SDS011;75140;47.754;8.840;2024-03-08T13:00:02;18.33;;;9.38;;
84877;SDS011;75140;47.754;8.840;2024-03-08T13:02:29;20.45;;;9.75;;
84877;SDS011;75140;47.754;8.840;2024-03-08T13:04:57;17.25;;;9.52;;
84877;SDS011;75140;47.754;8.840;2024-03-08T13:07:23;18.40;;;8.98;;
84877;SDS011;75140;47.754;8.840;2024-03-08T13:09:53;20.92;;;11.95;;
84877;SDS011;75140;47.754;8.840;2024-03-08T13:12:19;18.33;;;9.85;;
84877;SDS011;75140;47.754;8.840;2024-03-08T13:14:45;19.35;;;10.82;;
84877;SDS011;75140;47.754;8.840;2024-03-08T13:17:12;23.20;;;10.57;;
84877;SDS011;75140;47.754;8.840;2024-03-08T13:19:37;20.10;;;11.32;;
84877;SDS011;75140;47.754;8.840;2024-03-08T13:22:03;19.27;;;9.38;;
84877;SDS011;75140;47.754;8.840;2024-03-08T13:24:29;18.48;;;10.40;;
84877;SDS011;75140;47.754;8.840;2024-03-08T13:26:55;19.67;;;10.48;;
84877;SDS011;75140;47.754;8.840;2024-03-08T13:29:21;20.48;;;11.20;;
84877;SDS011;75140;47.754;8.840;2024-03-08T13:31:46;19.80;;;11.15;;
84877;SDS011;75140;47.754;8.840;2024-03-08T13:34:16;17.33;;;10.23;;
84877;SDS011;75140;47.754;8.840;2024-03-08T13:36:42;26.50;;;12.98;;
84877;SDS011;75140;47.754;8.840;2024-03-08T13:39:09;27.85;;;14.27;;
84877;SDS011;75140;47.754;8.840;2024-03-08T13:44:11;21.67;;;11.32;;
84877;SDS011;75140;47.754;8.840;2024-03-08T13:46:37;24.27;;;11.40;;
84877;SDS011;75140;47.754;8.840;2024-03-08T13:49:03;24.65;;;14.00;;
84877;SDS011;75140;47.754;8.840;2024-03-08T13:51:33;23.73;;;11.55;;
84877;SDS011;75140;47.754;8.840;2024-03-08T13:53:58;25.35;;;12.73;;
84877;SDS011;75140;47.754;8.840;2024-03-08T13:56:25;24.25;;;12.45;;
84877;SDS011;75140;47.754;8.840;2024-03-08T13:58:51;23.05;;;12.55;;
84877;SDS011;75140;47.754;8.840;2024-03-08T14:01:16;18.92;;;11.45;;
84877;SDS011;75140;47.754;8.840;2024-03-08T14:03:42;18.27;;;10.60;;
84877;SDS011;75140;47.754;8.840;2024-03-08T14:06:08;19.08;;;10.63;;
84877;SDS011;75140;47.754;8.840;2024-03-08T14:08:34;19.55;;;11.00;;
84877;SDS011;75140;47.754;8.840;2024-03-08T14:11:02;21.38;;;11.15;;
84877;SDS011;75140;47.754;8.840;2024-03-08T14:13:36;20.42;;;10.15;;
84877;SDS011;75140;47.754;8.840;2024-03-08T14:16:05;21.08;;;11.93;;
84877;SDS011;75140;47.754;8.840;2024-03-08T14:18:31;16.73;;;10.20;;
84877;SDS011;75140;47.754;8.840;2024-03-08T14:20:58;19.65;;;10.88;;
84877;SDS011;75140;47.754;8.840;2024-03-08T14:23:24;19.08;;;10.23;;
84877;SDS011;75140;47.754;8.840;2024-03-08T14:25:49;17.73;;;10.37;;
84877;SDS011;75140;47.754;8.840;2024-03-08T14:28:17;17.83;;;10.20;;
84877;SDS011;75140;47.754;8.840;2024-03-08T14:30:44;20.17;;;11.02;;
84877;SDS011;75140;47.754;8.840;2024-03-08T14:33:09;20.45;;;11.27;;
84877;SDS011;75140;47.754;8.840;2024-03-08T14:35:35;16.42;;;8.88;;
84877;SDS011;75140;47.754;8.840;2024-03-08T14:38:01;18.17;;;9.65;;
84877;SDS011;75140;47.754;8.840;2024-03-08T14:40:27;17.52;;;9.05;;
84877;SDS011;75140;47.754;8.840;2024-03-08T14:42:52;17.73;;;9.73;;
84877;SDS011;75140;47.754;8.840;2024-03-08T14:45:18;17.63;;;9.25;;
84877;SDS011;75140;47.754;8.840;2024-03-08T14:47:47;17.23;;;9.48;;